Time;durP1;ratioP1;P1;durP2;ratioP2;P2;SDS_P1;SDS_P2;PMS_P1;PMS_P2;Temp;Humidity;BMP_temperature;BMP_pressure;BME280_temperature;BME280_humidity;BME280_pressure;Samples;Min_cycle;Max_cycle;Signal;HPM_P1;HPM_P2
2022/01/22 00:00:10;;;;;;;1.02;0.40;;;22.80;30.10;;;;;;5106488;28;20929;-71
2022/01/22 00:02:36;;;;;;;0.60;0.30;;;22.80;30.10;;;;;;5073158;28;20764;-71
2022/01/22 00:05:04;;;;;;;0.77;0.30;;;22.80;30.00;;;;;;5106964;28;20393;-71
2022/01/22 00:07:30;;;;;;;1.48;0.35;;;22.80;30.10;;;;;;5072976;28;20421;-71
2022/01/22 00:10:02;;;;;;;0.82;0.40;;;22.70;30.10;;;;;;5091012;28;20378;-72
2022/01/22 00:14:59;;;;;;;0.70;0.30;;;22.70;30.10;;;;;;5091144;28;20494;-71
2022/01/22 00:17:24;;;;;;;0.90;0.50;;;22.60;30.10;;;;;;5091212;28;20378;-71
2022/01/22 00:19:50;;;;;;;0.67;0.30;;;22.60;30.10;;;;;;5072960;28;20931;-71
2022/01/22 00:22:16;;;;;;;0.70;0.30;;;22.60;30.10;;;;;;5090728;28;20444;-71
2022/01/22 00:24:44;;;;;;;0.65;0.30;;;22.60;30.10;;;;;;5072933;28;20394;-71
2022/01/22 00:27:10;;;;;;;0.75;0.30;;;22.60;30.10;;;;;;5106656;28;20504;-71
2022/01/22 00:29:35;;;;;;;0.65;0.30;;;22.50;30.10;;;;;;5106772;28;20969;-71
2022/01/22 00:32:01;;;;;;;0.53;0.33;;;22.50;30.10;;;;;;5106406;28;20915;-71
2022/01/22 00:34:27;;;;;;;0.63;0.30;;;22.50;30.10;;;;;;5092187;28;20378;-71
2022/01/22 00:36:53;;;;;;;0.60;0.30;;;22.50;30.10;;;;;;5076420;28;20400;-71
2022/01/22 00:39:18;;;;;;;0.50;0.30;;;22.40;30.10;;;;;;5094536;28;20382;-71
2022/01/22 00:41:44;;;;;;;1.20;0.40;;;22.40;30.10;;;;;;5094466;28;20422;-71
2022/01/22 00:44:10;;;;;;;0.75;0.30;;;22.40;30.10;;;;;;5075823;28;20389;-71
2022/01/22 00:46:35;;;;;;;0.60;0.30;;;22.40;30.10;;;;;;5094355;28;20414;-71
2022/01/22 00:49:02;;;;;;;0.47;0.20;;;22.30;30.00;;;;;;5076210;28;20467;-71
2022/01/22 00:51:28;;;;;;;0.65;0.30;;;22.30;30.00;;;;;;5076184;28;20871;-71
2022/01/22 00:53:54;;;;;;;0.68;0.30;;;22.40;30.10;;;;;;5109987;28;20455;-72
2022/01/22 00:56:19;;;;;;;0.87;0.20;;;22.30;30.00;;;;;;5093808;28;20387;-71
2022/01/22 00:58:45;;;;;;;0.50;0.30;;;22.30;30.10;;;;;;5094193;28;20860;-71
2022/01/22 01:01:11;;;;;;;0.50;0.30;;;22.20;30.00;;;;;;5094071;28;20446;-71
2022/01/22 01:03:36;;;;;;;0.60;0.30;;;22.20;30.00;;;;;;5094156;28;20760;-71
2022/01/22 01:06:04;;;;;;;0.33;0.20;;;22.20;30.00;;;;;;5093808;28;20413;-71
2022/01/22 01:08:34;;;;;;;0.93;0.40;;;22.20;30.00;;;;;;5093965;28;20397;-71
2022/01/22 01:11:00;;;;;;;0.50;0.30;;;22.20;30.00;;;;;;5093908;28;20393;-71
2022/01/22 01:13:28;;;;;;;0.80;0.30;;;22.20;30.10;;;;;;5093905;28;20477;-71
2022/01/22 01:15:59;;;;;;;0.70;0.20;;;22.10;30.00;;;;;;5093961;28;20733;-71
2022/01/22 01:32:20;;;;;;;0.50;0.38;;;22.00;30.00;;;;;;5093124;28;20815;-71
2022/01/22 01:34:48;;;;;;;0.50;0.30;;;21.90;30.00;;;;;;5075507;28;20379;-71
2022/01/22 01:37:17;;;;;;;0.70;0.30;;;21.90;30.00;;;;;;5093486;28;20923;-71
2022/01/22 01:39:45;;;;;;;0.98;0.30;;;21.90;30.00;;;;;;5075282;28;20397;-71
2022/01/22 01:42:17;;;;;;;0.80;0.30;;;21.80;30.00;;;;;;5092995;28;20390;-71
2022/01/22 01:44:43;;;;;;;0.52;0.30;;;21.80;30.00;;;;;;5093292;28;20387;-71
2022/01/22 01:47:12;;;;;;;0.50;0.30;;;21.80;30.00;;;;;;5092138;28;20428;-71
2022/01/22 01:49:38;;;;;;;0.50;0.30;;;21.80;30.00;;;;;;5093085;28;20429;-71
2022/01/22 01:52:07;;;;;;;0.30;0.20;;;21.80;30.10;;;;;;5092896;28;20421;-71
2022/01/22 01:59:47;;;;;;;0.60;0.38;;;21.70;30.00;;;;;;5093056;28;20400;-71
2022/01/22 02:02:13;;;;;;;0.60;0.33;;;21.70;30.10;;;;;;5074332;28;20879;-71
2022/01/22 02:04:39;;;;;;;0.52;0.30;;;21.70;30.10;;;;;;5092982;28;20385;-71
2022/01/22 02:07:05;;;;;;;0.70;0.30;;;21.60;30.00;;;;;;5092739;28;20485;-71
2022/01/22 02:09:33;;;;;;;0.60;0.30;;;21.60;30.10;;;;;;5074708;28;20390;-71
2022/01/22 02:12:12;;;;;;;0.95;0.43;;;21.60;30.10;;;;;;5074569;28;20390;-71
2022/01/22 02:25:16;;;;;;;0.60;0.30;;;21.50;30.10;;;;;;5092802;28;20374;-71
2022/01/22 02:27:42;;;;;;;0.50;0.30;;;21.50;30.10;;;;;;5092435;28;20418;-71
2022/01/22 02:30:08;;;;;;;0.30;0.30;;;21.40;30.10;;;;;;5073894;28;20386;-71
2022/01/22 02:35:26;;;;;;;0.63;0.30;;;21.40;30.20;;;;;;5092712;28;20373;-72
2022/01/22 02:37:59;;;;;;;0.60;0.30;;;21.40;30.10;;;;;;5092172;28;20804;-71
2022/01/22 02:40:29;;;;;;;0.43;0.20;;;21.40;30.20;;;;;;5091868;28;20374;-71
2022/01/22 02:42:54;;;;;;;0.40;0.28;;;21.40;30.20;;;;;;5092212;28;20418;-71
2022/01/22 02:45:23;;;;;;;0.43;0.33;;;21.30;30.20;;;;;;5092204;28;20433;-71
2022/01/22 02:47:49;;;;;;;0.43;0.22;;;21.30;30.20;;;;;;5091913;28;20430;-71
2022/01/22 02:50:16;;;;;;;0.75;0.35;;;21.30;30.20;;;;;;5091670;28;20378;-71
2022/01/22 02:52:42;;;;;;;0.43;0.30;;;21.20;30.20;;;;;;5092131;28;20529;-71
2022/01/22 02:55:08;;;;;;;0.70;0.30;;;21.30;30.20;;;;;;5073828;28;20469;-71
2022/01/22 02:57:38;;;;;;;0.40;0.30;;;21.20;30.20;;;;;;5091806;28;20468;-71
2022/01/22 03:00:07;;;;;;;0.50;0.30;;;21.20;30.20;;;;;;5091776;28;20378;-71
2022/01/22 03:02:33;;;;;;;0.50;0.30;;;21.20;30.30;;;;;;5091804;28;20470;-71
2022/01/22 03:05:00;;;;;;;0.43;0.20;;;21.10;30.30;;;;;;5073698;28;20943;-71
2022/01/22 03:07:26;;;;;;;0.47;0.20;;;21.10;30.20;;;;;;5091791;28;20584;-71
2022/01/22 03:09:53;;;;;;;0.70;0.30;;;21.10;30.30;;;;;;5073699;28;20465;-71
2022/01/22 03:16:25;;;;;;;0.40;0.30;;;21.10;30.30;;;;;;5060245;28;20375;-71
2022/01/22 03:18:18;;;;;;;0.55;0.35;;;21.10;30.40;;;;;;5073850;28;20390;-71
2022/01/22 03:29:03;;;;;;;0.73;0.30;;;21.00;30.40;;;;;;5091600;28;20440;-71
2022/01/22 03:31:28;;;;;;;0.60;0.30;;;21.00;30.40;;;;;;5091672;28;20378;-71
2022/01/22 03:33:54;;;;;;;0.30;0.30;;;20.90;30.40;;;;;;5091558;28;20386;-71
2022/01/22 03:36:20;;;;;;;0.30;0.20;;;20.90;30.40;;;;;;5091171;28;20386;-71
2022/01/22 03:38:47;;;;;;;0.40;0.20;;;20.90;30.40;;;;;;5091573;28;20386;-71
2022/01/22 03:41:13;;;;;;;0.40;0.20;;;20.90;30.40;;;;;;5091548;28;20392;-71
2022/01/22 03:43:38;;;;;;;0.32;0.20;;;20.90;30.40;;;;;;5073395;28;20833;-70
2022/01/22 03:46:04;;;;;;;0.47;0.20;;;20.80;30.40;;;;;;5091420;28;20451;-71
2022/01/22 03:48:30;;;;;;;0.38;0.20;;;20.80;30.40;;;;;;5090901;28;20772;-70
2022/01/22 03:50:56;;;;;;;0.60;0.30;;;20.80;30.50;;;;;;5091440;28;20778;-70
2022/01/22 03:53:21;;;;;;;0.63;0.30;;;20.80;30.50;;;;;;5091400;28;20398;-70
2022/01/22 03:56:03;;;;;;;0.53;0.30;;;20.80;30.50;;;;;;5091309;28;20386;-71
2022/01/22 03:58:37;;;;;;;0.40;0.20;;;20.80;30.60;;;;;;5090974;28;20394;-71
2022/01/22 04:04:17;;;;;;;0.47;0.25;;;20.70;30.50;;;;;;5052988;28;20386;-70
2022/01/22 04:09:25;;;;;;;0.50;0.25;;;20.70;30.70;;;;;;5092434;28;20388;-70
2022/01/22 04:11:52;;;;;;;0.50;0.38;;;20.70;30.70;;;;;;5095117;28;20374;-71
2022/01/22 04:14:32;;;;;;;0.40;0.30;;;20.80;30.70;;;;;;5094572;28;20759;-71
2022/01/22 04:25:25;;;;;;;0.63;0.30;;;21.10;30.30;;;;;;5094885;28;20908;-71
2022/01/22 04:27:53;;;;;;;0.50;0.30;;;21.10;30.10;;;;;;5094701;28;20413;-71
2022/01/22 04:30:22;;;;;;;0.50;0.30;;;21.20;30.20;;;;;;5094411;28;20476;-71
2022/01/22 04:32:49;;;;;;;0.50;0.20;;;21.20;30.10;;;;;;5076595;28;20405;-71
2022/01/22 04:35:15;;;;;;;0.30;0.20;;;21.20;30.10;;;;;;5076375;28;20872;-71
2022/01/22 04:37:41;;;;;;;0.25;0.20;;;21.20;30.10;;;;;;5094533;28;20402;-71
2022/01/22 04:40:08;;;;;;;0.33;0.20;;;21.20;30.00;;;;;;5094575;28;20386;-71
2022/01/22 04:42:36;;;;;;;0.30;0.22;;;21.20;30.00;;;;;;5093864;28;20398;-71
2022/01/22 04:45:11;;;;;;;0.20;0.20;;;21.20;30.00;;;;;;5094491;28;20433;-71
2022/01/22 04:55:40;;;;;;;0.57;0.20;;;21.30;30.00;;;;;;5094424;28;20389;-71
2022/01/22 04:58:07;;;;;;;0.30;0.20;;;21.30;30.10;;;;;;5094262;28;20385;-70
2022/01/22 05:00:35;;;;;;;0.30;0.20;;;21.30;29.90;;;;;;5093766;28;20481;-71
2022/01/22 05:03:02;;;;;;;0.20;0.10;;;21.30;30.00;;;;;;5094149;28;20386;-71
2022/01/22 05:05:28;;;;;;;0.30;0.20;;;21.30;30.00;;;;;;5093850;28;20418;-71
2022/01/22 05:07:54;;;;;;;0.40;0.30;;;21.30;29.90;;;;;;5075716;28;20432;-71
2022/01/22 05:10:20;;;;;;;0.17;0.10;;;21.30;30.00;;;;;;5093601;28;20378;-71
2022/01/22 05:12:46;;;;;;;0.30;0.20;;;21.30;29.90;;;;;;5075887;28;20527;-71
2022/01/22 05:15:12;;;;;;;0.50;0.20;;;21.30;29.90;;;;;;5075823;28;20420;-71
2022/01/22 05:17:41;;;;;;;0.30;0.20;;;21.30;29.90;;;;;;5093977;28;20390;-71
2022/01/22 05:20:32;;;;;;;0.50;0.30;;;21.20;31.10;;;;;;5093760;28;20419;-71
2022/01/22 05:23:05;;;;;;;0.38;0.20;;;21.20;30.10;;;;;;5093782;28;20413;-71
2022/01/22 05:25:55;;;;;;;0.30;0.20;;;21.00;30.00;;;;;;5093829;28;20409;-71
2022/01/22 05:29:24;;;;;;;0.10;0.10;;;21.00;30.50;;;;;;5093161;28;20382;-70
2022/01/22 05:31:36;;;;;;;0.30;0.10;;;21.00;30.10;;;;;;5084260;28;20390;-71
2022/01/22 05:36:58;;;;;;;0.30;0.20;;;20.90;30.50;;;;;;5093367;28;20389;-71
2022/01/22 05:39:25;;;;;;;0.20;0.10;;;20.90;30.30;;;;;;5093521;28;20374;-71
2022/01/22 05:41:51;;;;;;;0.20;0.10;;;20.80;31.30;;;;;;5093476;28;20386;-72
2022/01/22 05:44:17;;;;;;;0.38;0.20;;;20.80;30.30;;;;;;5092930;28;20385;-71
2022/01/22 05:46:43;;;;;;;0.30;0.20;;;20.90;30.40;;;;;;5108965;28;20426;-71
2022/01/22 05:49:09;;;;;;;0.20;0.20;;;20.80;30.50;;;;;;5093055;28;20896;-71
2022/01/22 05:51:37;;;;;;;0.25;0.10;;;20.80;30.30;;;;;;5093297;28;20386;-71
2022/01/22 05:59:36;;;;;;;0.20;0.20;;;20.70;30.40;;;;;;5093185;28;20970;-71
2022/01/22 06:02:07;;;;;;;0.20;0.20;;;20.80;30.30;;;;;;5093025;28;20864;-71
2022/01/22 06:04:33;;;;;;;0.40;0.20;;;20.70;30.20;;;;;;5092589;28;20386;-71
2022/01/22 06:06:59;;;;;;;0.30;0.20;;;20.70;30.40;;;;;;5092794;28;20989;-71
2022/01/22 06:09:26;;;;;;;0.20;0.20;;;20.60;30.20;;;;;;5092948;28;20382;-71
2022/01/22 06:11:56;;;;;;;0.40;0.20;;;20.60;30.70;;;;;;5092821;28;20901;-71
2022/01/22 06:14:22;;;;;;;0.20;0.20;;;20.60;30.30;;;;;;5092408;28;20512;-71
2022/01/22 06:16:48;;;;;;;0.20;0.20;;;20.60;30.30;;;;;;5092676;28;20489;-71
2022/01/22 06:19:14;;;;;;;0.15;0.15;;;20.60;30.20;;;;;;5092756;28;20782;-71
2022/01/22 06:21:40;;;;;;;0.30;0.30;;;20.60;30.30;;;;;;5092647;28;20403;-71
2022/01/22 06:24:06;;;;;;;0.20;0.20;;;20.50;30.40;;;;;;5092649;28;20382;-71
2022/01/22 06:26:32;;;;;;;0.20;0.10;;;20.50;30.70;;;;;;5092078;28;20401;-70
2022/01/22 06:28:58;;;;;;;0.10;0.10;;;20.50;30.50;;;;;;5092499;28;20475;-70
2022/01/22 06:31:24;;;;;;;0.40;0.10;;;20.60;30.40;;;;;;5092328;28;20378;-70
2022/01/22 06:33:50;;;;;;;0.10;0.10;;;20.60;30.50;;;;;;5092218;28;20409;-70
2022/01/22 06:36:16;;;;;;;0.10;0.10;;;20.50;30.40;;;;;;5092252;28;20473;-70
2022/01/22 06:38:41;;;;;;;0.20;0.20;;;20.50;30.50;;;;;;5092241;28;20489;-70
2022/01/22 06:43:51;;;;;;;2.00;0.30;;;20.40;31.00;;;;;;5092059;28;20949;-70
2022/01/22 06:46:17;;;;;;;2.87;1.43;;;20.60;31.60;;;;;;5092944;28;20460;-71
2022/01/22 06:48:43;;;;;;;5.30;2.65;;;20.60;31.80;;;;;;5093528;28;20402;-71
2022/01/22 06:51:08;;;;;;;2.83;1.63;;;20.60;33.40;;;;;;5093366;28;20439;-71
2022/01/22 06:53:37;;;;;;;3.10;1.40;;;20.60;34.10;;;;;;5093962;28;20394;-70
2022/01/22 06:56:05;;;;;;;3.40;1.00;;;20.60;33.80;;;;;;5092450;28;20390;-74
2022/01/22 06:58:30;;;;;;;1.85;0.50;;;20.60;32.90;;;;;;5073431;28;20386;-72
2022/01/22 07:00:56;;;;;;;2.80;0.73;;;20.60;31.30;;;;;;5092151;28;20463;-74
2022/01/22 07:03:22;;;;;;;3.00;0.50;;;20.50;30.70;;;;;;5092017;28;20390;-73
2022/01/22 07:05:47;;;;;;;0.90;0.40;;;20.50;31.00;;;;;;5091839;28;20436;-73
2022/01/22 07:08:13;;;;;;;2.25;0.40;;;20.50;31.30;;;;;;5092143;28;20958;-73
2022/01/22 07:10:39;;;;;;;1.10;0.40;;;20.50;31.30;;;;;;5093334;28;20396;-73
2022/01/22 07:13:05;;;;;;;1.73;0.50;;;20.50;31.20;;;;;;5092338;28;20420;-73
2022/01/22 07:15:30;;;;;;;1.15;0.40;;;20.50;31.40;;;;;;5107375;28;20382;-73
2022/01/22 07:17:56;;;;;;;0.90;0.50;;;20.50;31.30;;;;;;5091694;28;20387;-73
2022/01/22 07:20:28;;;;;;;1.15;0.50;;;20.50;31.70;;;;;;5107027;28;20386;-73
2022/01/22 07:23:03;;;;;;;1.33;0.40;;;20.50;32.30;;;;;;5093213;28;20420;-73
2022/01/22 07:25:29;;;;;;;1.70;0.50;;;20.50;32.20;;;;;;5091665;28;20394;-73
2022/01/22 07:27:56;;;;;;;1.60;0.50;;;20.50;32.30;;;;;;5091619;28;20417;-73
2022/01/22 07:30:21;;;;;;;1.60;0.60;;;20.60;32.10;;;;;;5091306;28;20382;-73
2022/01/22 07:32:47;;;;;;;1.15;0.50;;;20.60;31.80;;;;;;5091799;28;20397;-74
2022/01/22 07:35:16;;;;;;;0.60;0.40;;;20.60;31.80;;;;;;5091550;28;20486;-73
2022/01/22 07:37:43;;;;;;;2.35;0.70;;;20.60;31.80;;;;;;5091810;28;20386;-73
2022/01/22 07:40:10;;;;;;;1.77;0.73;;;20.60;31.60;;;;;;5091400;28;20386;-73
2022/01/22 07:42:37;;;;;;;1.88;0.50;;;20.60;31.80;;;;;;5091261;28;20449;-74
2022/01/22 07:45:04;;;;;;;2.27;0.60;;;20.60;31.70;;;;;;5094074;28;20427;-73
2022/01/22 07:47:30;;;;;;;1.30;0.60;;;20.60;31.90;;;;;;5077850;28;20413;-74
2022/01/22 07:49:56;;;;;;;1.05;0.55;;;20.50;31.90;;;;;;5095908;28;20386;-73
2022/01/22 07:52:22;;;;;;;0.98;0.60;;;20.50;31.90;;;;;;5077417;28;20743;-73
2022/01/22 07:54:48;;;;;;;0.95;0.50;;;20.50;32.00;;;;;;5095441;28;20443;-73
2022/01/22 07:57:14;;;;;;;1.27;0.47;;;20.50;31.90;;;;;;5095343;28;20393;-74
2022/01/22 07:59:40;;;;;;;1.33;0.50;;;20.60;31.80;;;;;;5111155;28;20390;-73
2022/01/22 08:02:06;;;;;;;1.98;0.47;;;20.50;31.80;;;;;;5077155;28;20390;-73
2022/01/22 08:04:33;;;;;;;0.90;0.32;;;20.50;32.80;;;;;;5110299;28;20469;-73
2022/01/22 08:07:01;;;;;;;1.48;0.43;;;20.50;32.60;;;;;;5095013;28;20414;-72
2022/01/22 08:09:26;;;;;;;2.20;0.50;;;20.50;33.20;;;;;;5077771;28;20378;-73
2022/01/22 08:11:52;;;;;;;0.70;0.50;;;20.50;33.30;;;;;;5111100;28;20404;-73
2022/01/22 08:14:18;;;;;;;1.70;0.40;;;20.50;33.40;;;;;;5095106;28;20371;-73
2022/01/22 08:16:46;;;;;;;1.27;0.40;;;20.60;34.00;;;;;;5095389;28;20400;-71
2022/01/22 08:19:12;;;;;;;1.60;0.40;;;20.60;32.60;;;;;;5095212;28;20735;-71
2022/01/22 08:21:38;;;;;;;0.70;0.50;;;20.60;32.30;;;;;;5095005;28;20390;-71
2022/01/22 08:24:04;;;;;;;0.93;0.40;;;20.60;32.20;;;;;;5095784;28;20470;-71
2022/01/22 08:26:34;;;;;;;1.40;0.40;;;20.60;32.10;;;;;;5094363;28;20389;-71
2022/01/22 08:29:02;;;;;;;0.80;0.40;;;20.60;32.00;;;;;;5096192;28;20794;-71
2022/01/22 08:36:24;;;;;;;0.82;0.35;;;20.70;31.60;;;;;;5095308;28;20385;-71
2022/01/22 08:38:50;;;;;;;1.27;0.35;;;20.70;31.70;;;;;;5076385;28;20390;-71
2022/01/22 08:41:15;;;;;;;1.20;0.45;;;20.70;31.70;;;;;;5094591;28;20468;-71
2022/01/22 08:43:41;;;;;;;1.30;0.40;;;20.70;31.60;;;;;;5093881;28;20463;-72
2022/01/22 08:46:07;;;;;;;1.00;0.40;;;20.70;31.60;;;;;;5094725;28;20390;-70
2022/01/22 08:48:32;;;;;;;0.68;0.35;;;20.70;31.60;;;;;;5092761;28;20771;-71
2022/01/22 08:50:59;;;;;;;2.80;0.40;;;20.70;31.40;;;;;;5092154;28;20397;-71
2022/01/22 08:53:25;;;;;;;2.13;0.47;;;20.70;31.80;;;;;;5093884;28;20386;-71
2022/01/22 08:55:51;;;;;;;2.67;1.60;;;20.70;32.30;;;;;;5092065;28;20725;-70
2022/01/22 08:58:17;;;;;;;0.93;0.70;;;20.80;33.50;;;;;;5093126;28;20449;-70
2022/01/22 09:00:45;;;;;;;2.35;1.00;;;20.90;33.10;;;;;;5092451;28;20390;-70
2022/01/22 09:03:13;;;;;;;1.10;0.80;;;20.90;32.80;;;;;;5092974;28;20394;-71
2022/01/22 09:05:39;;;;;;;0.90;0.60;;;20.90;32.90;;;;;;5091316;28;20502;-71
2022/01/22 09:08:05;;;;;;;1.25;0.70;;;21.00;32.90;;;;;;5092337;28;20942;-71
2022/01/22 09:10:31;;;;;;;1.83;0.80;;;21.00;33.00;;;;;;5089361;28;20394;-70
2022/01/22 09:12:56;;;;;;;2.42;0.73;;;21.00;32.80;;;;;;5099009;28;20491;-70
2022/01/22 09:15:22;;;;;;;2.50;0.70;;;21.00;33.10;;;;;;5092188;28;20817;-70
2022/01/22 09:17:48;;;;;;;1.40;0.60;;;21.00;33.10;;;;;;5097471;28;20460;-71
2022/01/22 09:20:31;;;;;;;1.58;0.60;;;21.00;33.30;;;;;;5099660;28;20958;-70
2022/01/22 09:22:57;;;;;;;1.40;0.60;;;21.00;33.40;;;;;;5074090;28;20382;-71
2022/01/22 09:25:23;;;;;;;0.88;0.45;;;21.00;33.40;;;;;;5092127;28;20394;-71
2022/01/22 09:27:48;;;;;;;0.85;0.50;;;21.00;32.90;;;;;;5092289;28;20497;-70
2022/01/22 09:30:14;;;;;;;0.63;0.50;;;21.10;32.60;;;;;;5092464;28;20409;-73
2022/01/22 09:32:39;;;;;;;0.73;0.60;;;21.00;32.30;;;;;;5090360;28;21003;-71
2022/01/22 09:35:05;;;;;;;0.90;0.50;;;21.00;32.10;;;;;;5092739;28;20384;-71
2022/01/22 09:37:31;;;;;;;1.17;0.70;;;21.00;32.10;;;;;;5092126;28;20386;-71
2022/01/22 09:39:57;;;;;;;1.27;0.60;;;21.00;32.00;;;;;;5091977;28;20385;-71
2022/01/22 09:42:23;;;;;;;1.50;0.50;;;21.00;31.80;;;;;;5091913;28;20409;-71
2022/01/22 09:44:49;;;;;;;1.77;0.60;;;20.90;31.70;;;;;;5108047;28;20386;-71
2022/01/22 09:49:58;;;;;;;1.20;0.40;;;20.90;31.60;;;;;;5108799;27;20357;-70
2022/01/22 09:52:24;;;;;;;1.42;0.50;;;20.90;31.50;;;;;;5108598;28;20934;-70
2022/01/22 09:54:50;;;;;;;1.37;0.60;;;20.90;31.40;;;;;;5108552;28;20389;-70
2022/01/22 09:57:15;;;;;;;0.90;0.60;;;20.90;31.40;;;;;;5109001;28;20378;-69
2022/01/22 09:59:41;;;;;;;0.87;0.60;;;20.90;31.20;;;;;;5108784;28;20382;-70
2022/01/22 10:02:15;;;;;;;0.90;0.60;;;21.00;31.10;;;;;;5109514;28;20389;-70
2022/01/22 10:04:45;;;;;;;5.57;0.80;;;20.90;31.80;;;;;;5106760;28;20933;-70
2022/01/22 10:07:17;;;;;;;1.45;0.80;;;20.80;31.90;;;;;;5108865;28;20378;-73
2022/01/22 10:10:15;;;;;;;2.83;1.27;;;20.90;32.50;;;;;;5108335;28;20894;-69
2022/01/22 10:12:53;;;;;;;4.57;2.30;;;21.00;33.40;;;;;;5084486;28;20466;-71
2022/01/22 10:15:21;;;;;;;4.20;1.80;;;21.00;35.20;;;;;;5109359;28;20377;-71
2022/01/22 10:17:55;;;;;;;2.88;1.30;;;21.10;34.20;;;;;;5109184;28;20400;-71
2022/01/22 10:20:24;;;;;;;4.00;1.50;;;21.10;34.20;;;;;;5108412;28;20432;-72
2022/01/22 10:22:56;;;;;;;2.88;1.25;;;21.10;33.70;;;;;;5107672;28;20817;-71
2022/01/22 10:25:32;;;;;;;2.47;0.90;;;21.20;33.40;;;;;;5104422;28;20381;-71
2022/01/22 10:28:05;;;;;;;2.22;0.80;;;21.10;33.10;;;;;;5106241;28;20409;-71
2022/01/22 10:30:40;;;;;;;2.65;0.80;;;21.10;33.00;;;;;;5105293;28;20401;-70
2022/01/22 10:36:10;;;;;;;6.15;0.90;;;21.20;33.00;;;;;;5094440;28;20461;-70
2022/01/22 10:38:47;;;;;;;2.92;1.08;;;21.20;33.40;;;;;;5104345;28;20389;-71
2022/01/22 10:41:15;;;;;;;2.63;0.77;;;21.20;33.10;;;;;;5106303;28;20938;-71
2022/01/22 10:43:53;;;;;;;3.72;0.77;;;21.20;33.30;;;;;;5106773;28;20778;-72
2022/01/22 10:46:44;;;;;;;4.07;1.20;;;21.20;33.40;;;;;;5104795;28;20388;-71
2022/01/22 10:49:23;;;;;;;4.17;1.13;;;21.20;33.20;;;;;;5107075;28;20458;-71
2022/01/22 10:51:52;;;;;;;3.65;1.63;;;21.30;34.30;;;;;;5107755;28;20388;-72
2022/01/22 10:54:23;;;;;;;6.05;1.80;;;21.20;33.70;;;;;;5106728;28;20394;-72
2022/01/22 10:56:50;;;;;;;4.53;1.65;;;21.30;34.60;;;;;;5107051;28;20389;-72
2022/01/22 10:59:19;;;;;;;5.30;1.85;;;21.40;34.80;;;;;;5105328;28;21085;-71
2022/01/22 11:01:56;;;;;;;5.50;1.92;;;21.40;34.40;;;;;;5088940;28;20927;-70
2022/01/22 11:04:26;;;;;;;5.72;1.90;;;21.50;34.90;;;;;;5091402;28;20398;-71
2022/01/22 11:06:57;;;;;;;4.15;1.73;;;21.50;35.20;;;;;;5092360;28;20862;-71
2022/01/22 11:09:26;;;;;;;3.72;1.80;;;21.50;35.00;;;;;;5092529;28;20505;-71
2022/01/22 11:11:52;;;;;;;3.90;1.80;;;21.50;34.70;;;;;;5089866;28;20930;-71
2022/01/22 11:14:18;;;;;;;5.15;1.85;;;21.50;34.50;;;;;;5091932;28;20390;-71
2022/01/22 11:16:46;;;;;;;5.93;1.85;;;21.50;34.20;;;;;;5092499;28;20414;-71
2022/01/22 11:19:30;;;;;;;2.77;1.60;;;21.50;34.00;;;;;;5088556;28;20762;-72
2022/01/22 11:21:57;;;;;;;5.00;1.70;;;21.50;33.90;;;;;;5083293;28;20395;-72
2022/01/22 11:24:24;;;;;;;3.60;1.90;;;21.50;33.60;;;;;;5071512;28;20410;-71
2022/01/22 11:26:58;;;;;;;3.20;1.60;;;21.40;33.50;;;;;;5070026;28;20392;-71
2022/01/22 11:29:49;;;;;;;3.28;1.60;;;21.50;33.50;;;;;;5079429;28;20525;-70
2022/01/22 11:32:19;;;;;;;3.88;1.42;;;21.50;33.40;;;;;;5091969;28;20908;-71
2022/01/22 11:34:47;;;;;;;4.03;1.70;;;21.50;33.30;;;;;;5091804;28;20397;-71
2022/01/22 11:37:39;;;;;;;2.35;1.50;;;21.50;33.30;;;;;;5092775;28;20446;-71
2022/01/22 11:40:33;;;;;;;4.00;1.60;;;21.50;33.00;;;;;;5087125;28;20528;-70
2022/01/22 11:43:06;;;;;;;3.17;1.40;;;21.40;32.80;;;;;;5088257;28;20451;-71
2022/01/22 11:45:51;;;;;;;5.27;1.67;;;21.40;33.10;;;;;;5089109;28;20394;-71
2022/01/22 11:48:24;;;;;;;5.17;1.40;;;21.40;33.20;;;;;;5087992;28;20491;-71
2022/01/22 11:50:52;;;;;;;5.15;1.60;;;21.40;33.20;;;;;;5089578;28;20466;-71
2022/01/22 11:53:32;;;;;;;3.15;1.45;;;21.40;33.30;;;;;;5087894;28;20386;-72
2022/01/22 11:56:10;;;;;;;4.22;1.58;;;21.40;33.10;;;;;;5088072;28;20374;-71
2022/01/22 11:59:01;;;;;;;3.90;1.25;;;21.40;33.20;;;;;;5090872;28;20390;-71
2022/01/22 12:01:51;;;;;;;3.33;1.40;;;21.40;33.00;;;;;;5090871;28;20389;-71
2022/01/22 12:04:20;;;;;;;3.22;1.13;;;21.40;33.00;;;;;;5091512;28;20735;-71
2022/01/22 12:07:01;;;;;;;2.95;1.35;;;21.30;33.90;;;;;;5090561;28;20413;-71
2022/01/22 12:09:40;;;;;;;6.57;1.60;;;21.30;33.60;;;;;;5090757;28;21011;-70
2022/01/22 12:15:35;;;;;;;3.67;1.40;;;21.30;33.00;;;;;;5091200;28;20896;-71
2022/01/22 12:18:03;;;;;;;4.85;1.40;;;21.30;33.20;;;;;;5078886;28;20466;-71
2022/01/22 12:23:12;;;;;;;3.28;1.50;;;21.30;32.60;;;;;;5090945;28;20890;-70
2022/01/22 12:25:37;;;;;;;3.15;1.17;;;21.20;32.70;;;;;;5089992;28;20394;-70
2022/01/22 12:28:05;;;;;;;5.00;1.33;;;21.20;32.50;;;;;;5090524;28;20485;-72
2022/01/22 12:30:36;;;;;;;4.07;1.50;;;21.20;32.40;;;;;;5089861;28;20404;-71
2022/01/22 12:33:06;;;;;;;3.55;1.23;;;21.20;32.70;;;;;;5089943;28;20897;-70
2022/01/22 12:35:58;;;;;;;4.35;1.30;;;21.20;32.60;;;;;;5090732;28;20414;-71
2022/01/22 12:38:32;;;;;;;3.53;1.50;;;21.10;32.60;;;;;;5090439;28;20378;-71
2022/01/22 12:46:52;;;;;;;3.00;1.60;;;21.10;32.90;;;;;;5046636;28;20400;-71
2022/01/22 12:49:20;;;;;;;2.80;1.60;;;21.20;32.80;;;;;;5070348;28;20418;-70
2022/01/22 12:51:52;;;;;;;2.40;1.48;;;21.20;32.70;;;;;;5091671;28;20390;-72
2022/01/22 12:54:27;;;;;;;3.03;1.50;;;21.10;32.70;;;;;;5090060;28;20394;-71
2022/01/22 12:57:24;;;;;;;2.50;1.40;;;21.20;32.60;;;;;;5088709;28;20904;-71
2022/01/22 12:59:51;;;;;;;2.43;1.50;;;21.20;32.40;;;;;;5088740;28;20412;-71
2022/01/22 13:02:18;;;;;;;2.80;1.63;;;21.20;32.60;;;;;;5090808;28;20390;-71
2022/01/22 13:04:57;;;;;;;3.20;1.58;;;21.10;32.50;;;;;;5090636;28;20409;-72
2022/01/22 13:07:25;;;;;;;3.30;1.37;;;21.20;32.60;;;;;;5094244;28;20476;-71
2022/01/22 13:09:54;;;;;;;1.95;1.33;;;21.20;32.60;;;;;;5107476;28;20412;-70
2022/01/22 13:12:20;;;;;;;3.97;1.60;;;21.10;32.20;;;;;;5091790;28;20382;-71
2022/01/22 13:14:46;;;;;;;2.10;1.23;;;21.20;32.40;;;;;;5095530;28;20937;-70
2022/01/22 13:17:13;;;;;;;3.25;1.23;;;21.10;32.70;;;;;;5110367;28;20372;-71
2022/01/22 13:19:40;;;;;;;3.75;1.30;;;21.20;32.70;;;;;;5096551;28;20382;-72
2022/01/22 13:22:06;;;;;;;3.33;1.30;;;21.20;32.80;;;;;;5108194;28;20384;-71
2022/01/22 13:24:32;;;;;;;2.90;1.30;;;21.20;32.70;;;;;;5069999;28;20752;-71
2022/01/22 13:27:11;;;;;;;3.20;1.30;;;21.10;32.90;;;;;;5110180;28;20441;-72
2022/01/22 13:29:51;;;;;;;4.68;1.60;;;21.10;32.70;;;;;;5111219;28;20431;-71
2022/01/22 13:49:20;;;;;;;4.32;1.80;;;21.10;32.70;;;;;;5090815;28;20472;-71
2022/01/22 13:51:47;;;;;;;5.60;1.90;;;21.20;32.70;;;;;;5090954;28;20428;-71
2022/01/22 13:54:13;;;;;;;5.72;1.90;;;21.20;32.60;;;;;;5091231;28;20382;-71
2022/01/22 13:57:03;;;;;;;3.78;1.67;;;21.20;32.60;;;;;;5090841;28;20469;-71
2022/01/22 13:59:34;;;;;;;3.33;1.70;;;21.20;32.50;;;;;;5090974;28;20394;-72
2022/01/22 14:04:46;;;;;;;4.13;1.55;;;21.20;32.80;;;;;;5090450;28;20443;-71
2022/01/22 14:07:26;;;;;;;5.20;1.65;;;21.20;32.30;;;;;;5072575;28;20404;-71
2022/01/22 14:09:56;;;;;;;4.03;1.50;;;21.20;32.30;;;;;;5078606;28;20420;-72
2022/01/22 14:12:30;;;;;;;3.20;1.30;;;21.20;32.60;;;;;;5063410;28;20375;-73
2022/01/22 14:14:57;;;;;;;4.13;1.60;;;21.20;32.90;;;;;;5050563;28;20396;-71
2022/01/22 14:17:30;;;;;;;4.82;1.48;;;21.20;32.80;;;;;;5068295;28;20909;-71
2022/01/22 14:20:06;;;;;;;4.73;1.40;;;21.20;32.90;;;;;;5065844;28;20460;-71
2022/01/22 14:23:00;;;;;;;3.15;1.17;;;21.20;32.80;;;;;;5065032;28;20453;-72
2022/01/22 14:25:26;;;;;;;3.03;1.10;;;21.20;32.50;;;;;;5061023;28;20395;-71
2022/01/22 14:28:12;;;;;;;2.97;1.37;;;21.20;32.30;;;;;;5067509;28;20797;-71
2022/01/22 14:30:46;;;;;;;3.72;1.20;;;21.20;32.50;;;;;;5066958;28;20391;-71
2022/01/22 14:33:15;;;;;;;5.03;1.70;;;21.20;32.70;;;;;;5066709;28;20449;-72
2022/01/22 14:35:45;;;;;;;5.80;1.87;;;21.20;33.30;;;;;;5068489;28;20409;-71
2022/01/22 14:38:34;;;;;;;5.45;3.00;;;21.30;33.80;;;;;;5052468;28;20923;-71
2022/01/22 14:46:41;;;;;;;4.30;2.00;;;21.40;34.40;;;;;;5069817;28;20441;-71
2022/01/22 14:49:07;;;;;;;6.28;2.40;;;21.40;33.70;;;;;;5073224;28;20417;-73
2022/01/22 14:51:33;;;;;;;6.03;2.17;;;21.40;33.90;;;;;;5093202;28;20393;-71
2022/01/22 14:53:59;;;;;;;5.63;1.97;;;21.40;34.40;;;;;;5091788;28;20481;-72
2022/01/22 14:56:24;;;;;;;6.30;1.70;;;21.50;34.40;;;;;;5091982;28;20531;-70
2022/01/22 14:58:50;;;;;;;4.78;1.80;;;21.50;34.60;;;;;;5091283;28;20508;-71
2022/01/22 15:01:16;;;;;;;3.43;1.70;;;21.50;34.60;;;;;;5091903;28;20378;-71
2022/01/22 15:03:42;;;;;;;4.45;1.70;;;21.50;34.30;;;;;;5091937;28;20885;-70
2022/01/22 15:06:07;;;;;;;4.50;1.60;;;21.50;34.30;;;;;;5093041;28;20394;-71